sensor_id;sensor_type;location;lat;lon;timestamp;P1;durP1;ratioP1;P2;durP2;ratioP2
68608;SDS011;55581;46.718;7.690;2022-07-17T00:02:15;4.10;;;1.73;;
68608;SDS011;55581;46.718;7.690;2022-07-17T00:04:42;4.27;;;1.60;;
68608;SDS011;55581;46.718;7.690;2022-07-17T00:07:08;6.38;;;1.95;;
68608;SDS011;55581;46.718;7.690;2022-07-17T00:09:34;5.13;;;1.52;;
68608;SDS011;55581;46.718;7.690;2022-07-17T00:12:00;5.93;;;1.70;;
68608;SDS011;55581;46.718;7.690;2022-07-17T00:14:25;3.55;;;1.75;;
68608;SDS011;55581;46.718;7.690;2022-07-17T00:16:51;3.53;;;1.50;;
68608;SDS011;55581;46.718;7.690;2022-07-17T00:19:18;3.47;;;1.60;;
68608;SDS011;55581;46.718;7.690;2022-07-17T00:21:45;5.43;;;1.60;;
68608;SDS011;55581;46.718;7.690;2022-07-17T00:24:10;5.05;;;1.80;;
68608;SDS011;55581;46.718;7.690;2022-07-17T00:26:36;4.40;;;1.90;;
68608;SDS011;55581;46.718;7.690;2022-07-17T00:29:02;3.67;;;1.83;;
68608;SDS011;55581;46.718;7.690;2022-07-17T00:31:28;4.67;;;1.30;;
68608;SDS011;55581;46.718;7.690;2022-07-17T00:33:53;4.53;;;1.77;;
68608;SDS011;55581;46.718;7.690;2022-07-17T00:36:23;3.57;;;1.57;;
68608;SDS011;55581;46.718;7.690;2022-07-17T00:38:48;3.60;;;1.50;;
68608;SDS011;55581;46.718;7.690;2022-07-17T00:41:16;4.55;;;1.95;;
68608;SDS011;55581;46.718;7.690;2022-07-17T00:43:42;4.20;;;1.80;;
68608;SDS011;55581;46.718;7.690;2022-07-17T00:46:07;5.00;;;1.98;;
68608;SDS011;55581;46.718;7.690;2022-07-17T00:48:35;5.93;;;1.80;;
68608;SDS011;55581;46.718;7.690;2022-07-17T00:51:00;5.55;;;1.70;;
68608;SDS011;55581;46.718;7.690;2022-07-17T00:53:26;7.53;;;2.03;;
68608;SDS011;55581;46.718;7.690;2022-07-17T00:55:53;3.83;;;1.90;;
68608;SDS011;55581;46.718;7.690;2022-07-17T00:58:20;4.53;;;1.90;;
68608;SDS011;55581;46.718;7.690;2022-07-17T01:00:49;5.10;;;2.37;;
68608;SDS011;55581;46.718;7.690;2022-07-17T01:03:16;4.85;;;2.17;;
68608;SDS011;55581;46.718;7.690;2022-07-17T01:05:43;6.82;;;2.20;;
68608;SDS011;55581;46.718;7.690;2022-07-17T01:08:08;4.93;;;1.70;;
68608;SDS011;55581;46.718;7.690;2022-07-17T01:10:34;4.57;;;2.10;;
68608;SDS011;55581;46.718;7.690;2022-07-17T01:13:00;7.10;;;2.17;;
68608;SDS011;55581;46.718;7.690;2022-07-17T01:15:25;9.27;;;2.20;;
68608;SDS011;55581;46.718;7.690;2022-07-17T01:17:51;5.43;;;2.27;;
68608;SDS011;55581;46.718;7.690;2022-07-17T01:20:16;4.83;;;1.93;;
68608;SDS011;55581;46.718;7.690;2022-07-17T01:22:47;5.43;;;1.92;;
68608;SDS011;55581;46.718;7.690;2022-07-17T01:25:14;5.10;;;1.80;;
68608;SDS011;55581;46.718;7.690;2022-07-17T01:27:40;5.07;;;2.08;;
68608;SDS011;55581;46.718;7.690;2022-07-17T01:30:06;5.93;;;2.08;;
68608;SDS011;55581;46.718;7.690;2022-07-17T01:32:37;5.23;;;2.07;;
68608;SDS011;55581;46.718;7.690;2022-07-17T01:35:06;4.60;;;2.00;;
68608;SDS011;55581;46.718;7.690;2022-07-17T01:37:33;5.80;;;2.28;;
68608;SDS011;55581;46.718;7.690;2022-07-17T01:39:59;3.90;;;1.98;;
68608;SDS011;55581;46.718;7.690;2022-07-17T01:42:25;6.13;;;2.27;;
68608;SDS011;55581;46.718;7.690;2022-07-17T01:44:52;5.38;;;2.30;;
68608;SDS011;55581;46.718;7.690;2022-07-17T01:47:18;5.47;;;2.30;;
68608;SDS011;55581;46.718;7.690;2022-07-17T01:49:48;5.70;;;2.10;;
68608;SDS011;55581;46.718;7.690;2022-07-17T01:52:17;4.50;;;2.17;;
68608;SDS011;55581;46.718;7.690;2022-07-17T01:54:43;4.63;;;2.20;;
68608;SDS011;55581;46.718;7.690;2022-07-17T01:57:09;5.03;;;2.45;;
68608;SDS011;55581;46.718;7.690;2022-07-17T01:59:35;4.78;;;2.10;;
68608;SDS011;55581;46.718;7.690;2022-07-17T02:02:01;5.30;;;2.10;;
68608;SDS011;55581;46.718;7.690;2022-07-17T02:04:27;4.30;;;2.25;;
68608;SDS011;55581;46.718;7.690;2022-07-17T02:06:54;5.43;;;2.47;;
68608;SDS011;55581;46.718;7.690;2022-07-17T02:09:20;6.47;;;2.47;;
68608;SDS011;55581;46.718;7.690;2022-07-17T02:11:46;4.85;;;2.20;;
68608;SDS011;55581;46.718;7.690;2022-07-17T02:14:11;6.30;;;2.57;;
68608;SDS011;55581;46.718;7.690;2022-07-17T02:16:37;6.07;;;2.10;;
68608;SDS011;55581;46.718;7.690;2022-07-17T02:19:02;5.37;;;2.23;;
68608;SDS011;55581;46.718;7.690;2022-07-17T02:21:28;6.28;;;2.50;;
68608;SDS011;55581;46.718;7.690;2022-07-17T02:23:53;4.97;;;2.23;;
68608;SDS011;55581;46.718;7.690;2022-07-17T02:26:18;6.43;;;2.30;;
68608;SDS011;55581;46.718;7.690;2022-07-17T02:28:44;5.50;;;2.40;;
68608;SDS011;55581;46.718;7.690;2022-07-17T02:31:09;7.68;;;2.38;;
68608;SDS011;55581;46.718;7.690;2022-07-17T02:33:35;4.20;;;2.40;;
68608;SDS011;55581;46.718;7.690;2022-07-17T02:36:00;5.07;;;2.30;;
68608;SDS011;55581;46.718;7.690;2022-07-17T02:38:26;6.13;;;2.75;;
68608;SDS011;55581;46.718;7.690;2022-07-17T02:40:52;6.05;;;2.58;;
68608;SDS011;55581;46.718;7.690;2022-07-17T02:43:18;4.60;;;2.20;;
68608;SDS011;55581;46.718;7.690;2022-07-17T02:45:45;4.63;;;2.42;;
68608;SDS011;55581;46.718;7.690;2022-07-17T02:48:11;7.23;;;2.53;;
68608;SDS011;55581;46.718;7.690;2022-07-17T02:50:36;6.03;;;2.23;;
68608;SDS011;55581;46.718;7.690;2022-07-17T02:53:02;6.80;;;2.67;;
68608;SDS011;55581;46.718;7.690;2022-07-17T02:55:27;5.60;;;2.30;;
68608;SDS011;55581;46.718;7.690;2022-07-17T02:57:52;4.80;;;2.63;;
68608;SDS011;55581;46.718;7.690;2022-07-17T03:00:18;6.00;;;2.40;;
68608;SDS011;55581;46.718;7.690;2022-07-17T03:02:44;5.10;;;2.65;;
68608;SDS011;55581;46.718;7.690;2022-07-17T03:05:10;6.07;;;2.90;;
68608;SDS011;55581;46.718;7.690;2022-07-17T03:07:37;6.57;;;2.87;;
68608;SDS011;55581;46.718;7.690;2022-07-17T03:10:03;5.30;;;2.80;;
68608;SDS011;55581;46.718;7.690;2022-07-17T03:12:29;4.78;;;2.70;;
68608;SDS011;55581;46.718;7.690;2022-07-17T03:14:55;4.70;;;2.73;;
68608;SDS011;55581;46.718;7.690;2022-07-17T03:17:21;5.45;;;2.67;;
68608;SDS011;55581;46.718;7.690;2022-07-17T03:19:46;6.33;;;2.37;;
68608;SDS011;55581;46.718;7.690;2022-07-17T03:22:12;6.60;;;2.77;;
68608;SDS011;55581;46.718;7.690;2022-07-17T03:24:37;6.28;;;2.55;;
68608;SDS011;55581;46.718;7.690;2022-07-17T03:27:02;4.80;;;2.30;;
68608;SDS011;55581;46.718;7.690;2022-07-17T03:29:30;5.63;;;2.70;;
68608;SDS011;55581;46.718;7.690;2022-07-17T03:31:56;5.88;;;2.75;;
68608;SDS011;55581;46.718;7.690;2022-07-17T03:34:21;6.47;;;2.80;;
68608;SDS011;55581;46.718;7.690;2022-07-17T03:36:47;5.70;;;2.73;;
68608;SDS011;55581;46.718;7.690;2022-07-17T03:39:13;5.53;;;2.50;;
68608;SDS011;55581;46.718;7.690;2022-07-17T03:41:38;5.82;;;2.88;;
68608;SDS011;55581;46.718;7.690;2022-07-17T03:44:04;5.73;;;2.77;;
68608;SDS011;55581;46.718;7.690;2022-07-17T03:46:29;6.67;;;3.03;;
68608;SDS011;55581;46.718;7.690;2022-07-17T03:48:55;5.22;;;2.50;;
68608;SDS011;55581;46.718;7.690;2022-07-17T03:51:20;5.13;;;2.40;;
68608;SDS011;55581;46.718;7.690;2022-07-17T03:53:45;5.87;;;2.70;;
68608;SDS011;55581;46.718;7.690;2022-07-17T03:56:11;5.87;;;2.40;;
68608;SDS011;55581;46.718;7.690;2022-07-17T03:58:36;4.78;;;2.53;;
68608;SDS011;55581;46.718;7.690;2022-07-17T04:01:02;3.87;;;2.27;;
68608;SDS011;55581;46.718;7.690;2022-07-17T04:03:27;4.63;;;2.10;;
68608;SDS011;55581;46.718;7.690;2022-07-17T04:05:53;11.80;;;2.60;;
68608;SDS011;55581;46.718;7.690;2022-07-17T04:08:18;5.43;;;2.20;;
68608;SDS011;55581;46.718;7.690;2022-07-17T04:10:44;5.20;;;2.40;;
68608;SDS011;55581;46.718;7.690;2022-07-17T04:13:10;5.47;;;2.22;;
68608;SDS011;55581;46.718;7.690;2022-07-17T04:15:36;4.88;;;2.22;;
68608;SDS011;55581;46.718;7.690;2022-07-17T04:18:20;5.88;;;2.53;;
68608;SDS011;55581;46.718;7.690;2022-07-17T04:20:50;6.53;;;2.60;;
68608;SDS011;55581;46.718;7.690;2022-07-17T04:23:16;5.60;;;2.90;;
68608;SDS011;55581;46.718;7.690;2022-07-17T04:25:42;6.35;;;2.60;;
68608;SDS011;55581;46.718;7.690;2022-07-17T04:28:08;4.93;;;2.25;;
68608;SDS011;55581;46.718;7.690;2022-07-17T04:30:34;5.80;;;2.53;;
68608;SDS011;55581;46.718;7.690;2022-07-17T04:33:02;6.00;;;2.40;;
68608;SDS011;55581;46.718;7.690;2022-07-17T04:35:28;7.85;;;2.75;;
68608;SDS011;55581;46.718;7.690;2022-07-17T04:37:54;4.50;;;2.22;;
68608;SDS011;55581;46.718;7.690;2022-07-17T04:40:19;5.47;;;2.40;;
68608;SDS011;55581;46.718;7.690;2022-07-17T04:42:45;5.77;;;2.93;;
68608;SDS011;55581;46.718;7.690;2022-07-17T04:45:11;6.03;;;2.47;;
68608;SDS011;55581;46.718;7.690;2022-07-17T04:47:38;5.87;;;2.80;;
68608;SDS011;55581;46.718;7.690;2022-07-17T04:50:04;5.40;;;2.78;;
68608;SDS011;55581;46.718;7.690;2022-07-17T04:52:29;6.40;;;3.23;;
68608;SDS011;55581;46.718;7.690;2022-07-17T04:54:55;4.87;;;2.80;;
68608;SDS011;55581;46.718;7.690;2022-07-17T04:57:20;6.90;;;2.77;;
68608;SDS011;55581;46.718;7.690;2022-07-17T04:59:46;6.68;;;3.15;;
68608;SDS011;55581;46.718;7.690;2022-07-17T05:02:11;4.90;;;2.63;;
68608;SDS011;55581;46.718;7.690;2022-07-17T05:04:37;6.73;;;2.80;;
68608;SDS011;55581;46.718;7.690;2022-07-17T05:07:02;5.77;;;2.83;;
68608;SDS011;55581;46.718;7.690;2022-07-17T05:09:28;7.17;;;3.17;;
68608;SDS011;55581;46.718;7.690;2022-07-17T05:11:53;5.38;;;2.95;;
68608;SDS011;55581;46.718;7.690;2022-07-17T05:14:19;6.27;;;3.40;;
68608;SDS011;55581;46.718;7.690;2022-07-17T05:16:44;6.53;;;2.67;;
68608;SDS011;55581;46.718;7.690;2022-07-17T05:19:12;5.37;;;2.90;;
68608;SDS011;55581;46.718;7.690;2022-07-17T05:21:38;6.80;;;2.97;;
68608;SDS011;55581;46.718;7.690;2022-07-17T05:24:05;8.10;;;3.00;;
68608;SDS011;55581;46.718;7.690;2022-07-17T05:26:31;6.17;;;3.40;;
68608;SDS011;55581;46.718;7.690;2022-07-17T05:28:59;6.05;;;3.17;;
68608;SDS011;55581;46.718;7.690;2022-07-17T05:31:24;5.50;;;3.00;;
68608;SDS011;55581;46.718;7.690;2022-07-17T05:33:50;5.35;;;3.08;;
68608;SDS011;55581;46.718;7.690;2022-07-17T05:36:15;7.70;;;3.63;;
68608;SDS011;55581;46.718;7.690;2022-07-17T05:38:41;5.90;;;3.30;;
68608;SDS011;55581;46.718;7.690;2022-07-17T05:41:06;7.45;;;3.15;;
68608;SDS011;55581;46.718;7.690;2022-07-17T05:43:34;6.00;;;3.10;;
68608;SDS011;55581;46.718;7.690;2022-07-17T05:46:00;6.15;;;3.13;;
68608;SDS011;55581;46.718;7.690;2022-07-17T05:48:26;5.17;;;3.03;;
68608;SDS011;55581;46.718;7.690;2022-07-17T05:50:51;6.10;;;3.28;;
68608;SDS011;55581;46.718;7.690;2022-07-17T05:53:17;5.87;;;3.47;;
68608;SDS011;55581;46.718;7.690;2022-07-17T05:55:43;5.40;;;3.45;;
68608;SDS011;55581;46.718;7.690;2022-07-17T05:58:08;9.13;;;5.47;;
68608;SDS011;55581;46.718;7.690;2022-07-17T06:00:35;6.18;;;3.50;;
68608;SDS011;55581;46.718;7.690;2022-07-17T06:03:01;6.72;;;3.05;;
68608;SDS011;55581;46.718;7.690;2022-07-17T06:05:26;9.67;;;4.07;;
68608;SDS011;55581;46.718;7.690;2022-07-17T06:07:54;6.88;;;3.70;;
68608;SDS011;55581;46.718;7.690;2022-07-17T06:10:21;5.93;;;2.92;;
68608;SDS011;55581;46.718;7.690;2022-07-17T06:12:47;7.23;;;3.70;;
68608;SDS011;55581;46.718;7.690;2022-07-17T06:15:15;8.55;;;4.60;;
68608;SDS011;55581;46.718;7.690;2022-07-17T06:17:41;8.55;;;3.75;;
68608;SDS011;55581;46.718;7.690;2022-07-17T06:20:07;5.27;;;3.60;;
68608;SDS011;55581;46.718;7.690;2022-07-17T06:22:33;8.10;;;3.85;;
68608;SDS011;55581;46.718;7.690;2022-07-17T06:24:59;6.82;;;3.45;;
68608;SDS011;55581;46.718;7.690;2022-07-17T06:27:24;7.00;;;3.47;;
68608;SDS011;55581;46.718;7.690;2022-07-17T06:29:50;8.50;;;3.80;;
68608;SDS011;55581;46.718;7.690;2022-07-17T06:32:18;6.23;;;3.17;;
68608;SDS011;55581;46.718;7.690;2022-07-17T06:34:43;5.97;;;3.05;;
68608;SDS011;55581;46.718;7.690;2022-07-17T06:37:09;7.50;;;3.10;;
68608;SDS011;55581;46.718;7.690;2022-07-17T06:39:34;4.37;;;2.97;;
68608;SDS011;55581;46.718;7.690;2022-07-17T06:42:00;5.88;;;3.10;;
68608;SDS011;55581;46.718;7.690;2022-07-17T06:44:26;6.50;;;2.97;;
68608;SDS011;55581;46.718;7.690;2022-07-17T06:46:54;5.70;;;3.10;;
68608;SDS011;55581;46.718;7.690;2022-07-17T06:49:20;7.50;;;3.40;;
68608;SDS011;55581;46.718;7.690;2022-07-17T06:51:45;6.10;;;3.40;;
68608;SDS011;55581;46.718;7.690;2022-07-17T06:54:13;8.27;;;3.55;;
68608;SDS011;55581;46.718;7.690;2022-07-17T06:56:42;6.93;;;3.47;;
68608;SDS011;55581;46.718;7.690;2022-07-17T06:59:10;5.57;;;3.40;;
68608;SDS011;55581;46.718;7.690;2022-07-17T07:01:36;6.72;;;3.33;;
68608;SDS011;55581;46.718;7.690;2022-07-17T07:04:03;6.53;;;3.40;;
68608;SDS011;55581;46.718;7.690;2022-07-17T07:06:29;5.13;;;3.13;;
68608;SDS011;55581;46.718;7.690;2022-07-17T07:08:55;5.90;;;3.20;;
68608;SDS011;55581;46.718;7.690;2022-07-17T07:11:22;6.70;;;3.45;;
68608;SDS011;55581;46.718;7.690;2022-07-17T07:13:48;6.93;;;3.40;;
68608;SDS011;55581;46.718;7.690;2022-07-17T07:16:13;5.70;;;3.00;;
68608;SDS011;55581;46.718;7.690;2022-07-17T07:18:39;7.83;;;3.20;;
68608;SDS011;55581;46.718;7.690;2022-07-17T07:21:04;6.22;;;3.47;;
68608;SDS011;55581;46.718;7.690;2022-07-17T07:23:29;6.10;;;3.67;;
68608;SDS011;55581;46.718;7.690;2022-07-17T07:25:55;5.90;;;3.30;;
68608;SDS011;55581;46.718;7.690;2022-07-17T07:28:20;7.25;;;3.50;;
68608;SDS011;55581;46.718;7.690;2022-07-17T07:30:46;5.87;;;3.47;;
68608;SDS011;55581;46.718;7.690;2022-07-17T07:33:12;6.43;;;3.53;;
68608;SDS011;55581;46.718;7.690;2022-07-17T07:35:41;6.57;;;3.97;;
68608;SDS011;55581;46.718;7.690;2022-07-17T07:38:07;5.25;;;3.25;;
68608;SDS011;55581;46.718;7.690;2022-07-17T07:40:33;6.55;;;3.75;;
68608;SDS011;55581;46.718;7.690;2022-07-17T07:42:59;5.43;;;3.30;;
68608;SDS011;55581;46.718;7.690;2022-07-17T07:45:25;7.00;;;4.20;;
68608;SDS011;55581;46.718;7.690;2022-07-17T07:47:50;6.28;;;3.78;;
68608;SDS011;55581;46.718;7.690;2022-07-17T07:50:16;6.10;;;3.60;;
68608;SDS011;55581;46.718;7.690;2022-07-17T07:52:43;6.05;;;3.58;;
68608;SDS011;55581;46.718;7.690;2022-07-17T07:55:11;5.33;;;3.60;;
68608;SDS011;55581;46.718;7.690;2022-07-17T07:57:37;6.03;;;3.67;;
68608;SDS011;55581;46.718;7.690;2022-07-17T08:00:06;6.43;;;3.83;;
68608;SDS011;55581;46.718;7.690;2022-07-17T08:02:33;6.90;;;3.37;;
68608;SDS011;55581;46.718;7.690;2022-07-17T08:04:58;9.15;;;3.92;;
68608;SDS011;55581;46.718;7.690;2022-07-17T08:07:27;6.70;;;3.80;;
68608;SDS011;55581;46.718;7.690;2022-07-17T08:09:53;7.90;;;3.90;;
68608;SDS011;55581;46.718;7.690;2022-07-17T08:12:19;7.95;;;3.58;;
68608;SDS011;55581;46.718;7.690;2022-07-17T08:14:45;5.78;;;3.42;;
68608;SDS011;55581;46.718;7.690;2022-07-17T08:17:11;7.87;;;3.90;;
68608;SDS011;55581;46.718;7.690;2022-07-17T08:19:36;4.93;;;3.40;;
68608;SDS011;55581;46.718;7.690;2022-07-17T08:22:01;6.80;;;3.73;;
68608;SDS011;55581;46.718;7.690;2022-07-17T08:24:27;5.63;;;3.08;;
68608;SDS011;55581;46.718;7.690;2022-07-17T08:26:52;6.47;;;3.30;;
68608;SDS011;55581;46.718;7.690;2022-07-17T08:29:19;8.13;;;3.70;;
68608;SDS011;55581;46.718;7.690;2022-07-17T08:31:44;7.53;;;3.33;;
68608;SDS011;55581;46.718;7.690;2022-07-17T08:34:10;5.47;;;2.60;;
68608;SDS011;55581;46.718;7.690;2022-07-17T08:36:35;7.43;;;3.60;;
68608;SDS011;55581;46.718;7.690;2022-07-17T08:39:01;7.73;;;3.70;;
68608;SDS011;55581;46.718;7.690;2022-07-17T08:41:30;6.00;;;3.20;;
68608;SDS011;55581;46.718;7.690;2022-07-17T08:44:02;6.03;;;3.53;;
68608;SDS011;55581;46.718;7.690;2022-07-17T08:46:28;5.13;;;3.10;;
68608;SDS011;55581;46.718;7.690;2022-07-17T08:48:58;5.73;;;3.57;;
68608;SDS011;55581;46.718;7.690;2022-07-17T08:51:27;6.95;;;3.45;;
68608;SDS011;55581;46.718;7.690;2022-07-17T08:53:53;5.05;;;3.22;;
68608;SDS011;55581;46.718;7.690;2022-07-17T08:56:19;6.10;;;3.70;;
68608;SDS011;55581;46.718;7.690;2022-07-17T08:58:45;6.63;;;3.83;;
68608;SDS011;55581;46.718;7.690;2022-07-17T09:01:11;6.25;;;3.60;;
68608;SDS011;55581;46.718;7.690;2022-07-17T09:03:38;5.20;;;3.60;;
68608;SDS011;55581;46.718;7.690;2022-07-17T09:06:04;5.25;;;3.60;;
68608;SDS011;55581;46.718;7.690;2022-07-17T09:08:30;5.75;;;3.47;;
68608;SDS011;55581;46.718;7.690;2022-07-17T09:10:58;6.25;;;3.45;;
68608;SDS011;55581;46.718;7.690;2022-07-17T09:15:52;5.03;;;3.47;;
68608;SDS011;55581;46.718;7.690;2022-07-17T09:18:19;7.13;;;3.65;;
68608;SDS011;55581;46.718;7.690;2022-07-17T09:20:47;7.05;;;3.53;;
68608;SDS011;55581;46.718;7.690;2022-07-17T09:23:14;10.80;;;3.60;;
68608;SDS011;55581;46.718;7.690;2022-07-17T09:25:44;6.13;;;3.22;;
68608;SDS011;55581;46.718;7.690;2022-07-17T09:28:12;5.68;;;3.70;;
68608;SDS011;55581;46.718;7.690;2022-07-17T09:30:40;6.72;;;3.20;;
68608;SDS011;55581;46.718;7.690;2022-07-17T09:33:10;5.05;;;3.28;;
68608;SDS011;55581;46.718;7.690;2022-07-17T09:38:43;4.85;;;3.40;;
68608;SDS011;55581;46.718;7.690;2022-07-17T09:43:49;6.32;;;3.55;;
68608;SDS011;55581;46.718;7.690;2022-07-17T09:46:24;5.75;;;3.72;;
68608;SDS011;55581;46.718;7.690;2022-07-17T09:48:52;5.90;;;3.50;;
68608;SDS011;55581;46.718;7.690;2022-07-17T09:53:57;5.78;;;3.88;;
68608;SDS011;55581;46.718;7.690;2022-07-17T09:56:28;5.00;;;3.28;;
68608;SDS011;55581;46.718;7.690;2022-07-17T09:58:57;7.53;;;3.60;;
68608;SDS011;55581;46.718;7.690;2022-07-17T10:01:26;5.73;;;3.70;;
68608;SDS011;55581;46.718;7.690;2022-07-17T10:03:52;7.22;;;3.75;;
68608;SDS011;55581;46.718;7.690;2022-07-17T10:06:18;5.90;;;3.72;;
68608;SDS011;55581;46.718;7.690;2022-07-17T10:08:45;5.80;;;3.38;;
68608;SDS011;55581;46.718;7.690;2022-07-17T10:11:12;14.30;;;3.77;;
68608;SDS011;55581;46.718;7.690;2022-07-17T10:13:42;7.00;;;3.73;;
68608;SDS011;55581;46.718;7.690;2022-07-17T10:16:10;7.63;;;3.45;;
68608;SDS011;55581;46.718;7.690;2022-07-17T10:18:40;6.18;;;3.15;;
68608;SDS011;55581;46.718;7.690;2022-07-17T10:23:37;5.25;;;3.83;;
68608;SDS011;55581;46.718;7.690;2022-07-17T10:26:03;6.97;;;3.43;;
68608;SDS011;55581;46.718;7.690;2022-07-17T10:28:39;6.50;;;3.60;;
68608;SDS011;55581;46.718;7.690;2022-07-17T10:31:04;5.72;;;3.88;;
68608;SDS011;55581;46.718;7.690;2022-07-17T10:33:32;7.53;;;3.67;;
68608;SDS011;55581;46.718;7.690;2022-07-17T10:35:58;5.43;;;3.40;;
68608;SDS011;55581;46.718;7.690;2022-07-17T10:38:24;6.05;;;3.85;;
68608;SDS011;55581;46.718;7.690;2022-07-17T10:41:01;8.97;;;3.80;;
68608;SDS011;55581;46.718;7.690;2022-07-17T10:43:44;6.50;;;3.65;;
68608;SDS011;55581;46.718;7.690;2022-07-17T10:46:10;6.45;;;3.95;;
68608;SDS011;55581;46.718;7.690;2022-07-17T10:48:38;6.60;;;4.13;;
68608;SDS011;55581;46.718;7.690;2022-07-17T10:51:04;6.25;;;3.88;;
68608;SDS011;55581;46.718;7.690;2022-07-17T10:53:34;6.07;;;3.63;;
68608;SDS011;55581;46.718;7.690;2022-07-17T10:56:04;4.90;;;3.40;;
68608;SDS011;55581;46.718;7.690;2022-07-17T11:03:42;5.33;;;3.47;;
68608;SDS011;55581;46.718;7.690;2022-07-17T11:09:25;6.68;;;3.63;;
68608;SDS011;55581;46.718;7.690;2022-07-17T11:11:44;7.32;;;3.50;;
68608;SDS011;55581;46.718;7.690;2022-07-17T11:14:11;5.45;;;4.07;;
68608;SDS011;55581;46.718;7.690;2022-07-17T11:16:57;7.27;;;3.23;;
68608;SDS011;55581;46.718;7.690;2022-07-17T11:19:35;5.90;;;4.10;;
68608;SDS011;55581;46.718;7.690;2022-07-17T11:22:09;7.25;;;3.78;;
68608;SDS011;55581;46.718;7.690;2022-07-17T11:27:21;6.97;;;3.65;;
68608;SDS011;55581;46.718;7.690;2022-07-17T11:29:49;6.70;;;3.70;;
68608;SDS011;55581;46.718;7.690;2022-07-17T11:32:16;5.45;;;4.20;;
68608;SDS011;55581;46.718;7.690;2022-07-17T11:34:42;5.72;;;4.10;;
68608;SDS011;55581;46.718;7.690;2022-07-17T11:37:08;5.10;;;3.70;;
68608;SDS011;55581;46.718;7.690;2022-07-17T11:39:37;6.53;;;3.83;;
68608;SDS011;55581;46.718;7.690;2022-07-17T11:42:08;6.22;;;3.30;;
68608;SDS011;55581;46.718;7.690;2022-07-17T11:44:35;5.82;;;3.40;;
68608;SDS011;55581;46.718;7.690;2022-07-17T11:47:01;7.07;;;3.50;;
68608;SDS011;55581;46.718;7.690;2022-07-17T11:49:28;5.25;;;3.20;;
68608;SDS011;55581;46.718;7.690;2022-07-17T11:51:59;9.00;;;3.83;;
68608;SDS011;55581;46.718;7.690;2022-07-17T11:54:52;5.43;;;3.40;;
68608;SDS011;55581;46.718;7.690;2022-07-17T11:57:23;4.88;;;3.30;;
68608;SDS011;55581;46.718;7.690;2022-07-17T11:59:51;5.53;;;4.30;;
68608;SDS011;55581;46.718;7.690;2022-07-17T12:02:21;7.43;;;3.67;;
68608;SDS011;55581;46.718;7.690;2022-07-17T12:04:54;4.63;;;3.70;;
68608;SDS011;55581;46.718;7.690;2022-07-17T12:07:21;6.17;;;3.60;;
68608;SDS011;55581;46.718;7.690;2022-07-17T12:09:48;5.75;;;3.63;;
68608;SDS011;55581;46.718;7.690;2022-07-17T12:12:19;5.30;;;4.10;;
68608;SDS011;55581;46.718;7.690;2022-07-17T12:14:53;6.43;;;3.70;;
68608;SDS011;55581;46.718;7.690;2022-07-17T12:17:23;5.65;;;3.70;;
68608;SDS011;55581;46.718;7.690;2022-07-17T12:19:50;5.73;;;3.90;;
68608;SDS011;55581;46.718;7.690;2022-07-17T12:22:16;5.70;;;3.38;;
68608;SDS011;55581;46.718;7.690;2022-07-17T12:24:42;6.47;;;3.90;;
68608;SDS011;55581;46.718;7.690;2022-07-17T12:27:10;7.53;;;3.42;;
68608;SDS011;55581;46.718;7.690;2022-07-17T12:29:38;5.75;;;3.78;;
68608;SDS011;55581;46.718;7.690;2022-07-17T12:32:09;4.82;;;3.47;;
68608;SDS011;55581;46.718;7.690;2022-07-17T12:34:43;6.65;;;3.30;;
68608;SDS011;55581;46.718;7.690;2022-07-17T12:37:13;5.47;;;3.40;;
68608;SDS011;55581;46.718;7.690;2022-07-17T12:39:46;6.00;;;3.53;;
68608;SDS011;55581;46.718;7.690;2022-07-17T12:42:12;6.88;;;3.72;;
68608;SDS011;55581;46.718;7.690;2022-07-17T12:44:39;6.13;;;3.85;;
68608;SDS011;55581;46.718;7.690;2022-07-17T12:47:09;5.60;;;3.40;;
68608;SDS011;55581;46.718;7.690;2022-07-17T12:49:35;10.43;;;3.50;;
68608;SDS011;55581;46.718;7.690;2022-07-17T12:52:00;6.28;;;3.40;;
68608;SDS011;55581;46.718;7.690;2022-07-17T12:54:26;9.17;;;3.50;;
68608;SDS011;55581;46.718;7.690;2022-07-17T12:56:52;6.50;;;3.58;;
68608;SDS011;55581;46.718;7.690;2022-07-17T12:59:17;5.20;;;3.65;;
68608;SDS011;55581;46.718;7.690;2022-07-17T13:01:43;5.80;;;3.80;;
68608;SDS011;55581;46.718;7.690;2022-07-17T13:04:13;6.15;;;3.67;;
68608;SDS011;55581;46.718;7.690;2022-07-17T13:06:39;5.60;;;3.70;;
68608;SDS011;55581;46.718;7.690;2022-07-17T13:09:05;5.40;;;3.50;;
68608;SDS011;55581;46.718;7.690;2022-07-17T13:11:30;6.60;;;3.40;;
68608;SDS011;55581;46.718;7.690;2022-07-17T13:13:55;8.02;;;3.33;;
68608;SDS011;55581;46.718;7.690;2022-07-17T13:16:21;6.23;;;3.57;;
68608;SDS011;55581;46.718;7.690;2022-07-17T13:18:46;7.20;;;3.30;;
68608;SDS011;55581;46.718;7.690;2022-07-17T13:21:12;5.67;;;4.13;;
68608;SDS011;55581;46.718;7.690;2022-07-17T13:23:37;6.37;;;3.60;;
68608;SDS011;55581;46.718;7.690;2022-07-17T13:26:03;6.15;;;3.47;;
68608;SDS011;55581;46.718;7.690;2022-07-17T13:28:29;4.70;;;3.30;;
68608;SDS011;55581;46.718;7.690;2022-07-17T13:30:55;8.70;;;3.85;;
68608;SDS011;55581;46.718;7.690;2022-07-17T13:33:21;7.32;;;3.40;;
68608;SDS011;55581;46.718;7.690;2022-07-17T13:35:47;6.30;;;3.30;;
68608;SDS011;55581;46.718;7.690;2022-07-17T13:38:13;7.22;;;3.17;;
68608;SDS011;55581;46.718;7.690;2022-07-17T13:40:38;5.63;;;3.60;;
68608;SDS011;55581;46.718;7.690;2022-07-17T13:43:04;5.43;;;3.50;;
68608;SDS011;55581;46.718;7.690;2022-07-17T13:45:29;6.07;;;3.60;;
68608;SDS011;55581;46.718;7.690;2022-07-17T13:47:55;8.07;;;3.75;;
68608;SDS011;55581;46.718;7.690;2022-07-17T13:50:22;9.63;;;3.70;;
68608;SDS011;55581;46.718;7.690;2022-07-17T13:52:50;6.68;;;3.20;;
68608;SDS011;55581;46.718;7.690;2022-07-17T13:55:16;5.73;;;3.60;;
68608;SDS011;55581;46.718;7.690;2022-07-17T13:57:42;5.90;;;3.60;;
68608;SDS011;55581;46.718;7.690;2022-07-17T14:00:08;6.13;;;3.33;;
68608;SDS011;55581;46.718;7.690;2022-07-17T14:02:35;5.47;;;3.42;;
68608;SDS011;55581;46.718;7.690;2022-07-17T14:05:02;6.35;;;4.05;;
68608;SDS011;55581;46.718;7.690;2022-07-17T14:07:28;5.30;;;3.80;;
68608;SDS011;55581;46.718;7.690;2022-07-17T14:09:53;7.20;;;4.20;;
68608;SDS011;55581;46.718;7.690;2022-07-17T14:12:19;5.87;;;3.73;;
68608;SDS011;55581;46.718;7.690;2022-07-17T14:14:44;6.32;;;3.88;;
68608;SDS011;55581;46.718;7.690;2022-07-17T14:17:10;6.47;;;3.57;;
68608;SDS011;55581;46.718;7.690;2022-07-17T14:19:35;5.40;;;3.73;;
68608;SDS011;55581;46.718;7.690;2022-07-17T14:22:02;5.90;;;3.70;;
68608;SDS011;55581;46.718;7.690;2022-07-17T14:24:29;5.97;;;4.05;;
68608;SDS011;55581;46.718;7.690;2022-07-17T14:26:55;5.90;;;3.80;;
68608;SDS011;55581;46.718;7.690;2022-07-17T14:29:20;5.13;;;3.97;;
68608;SDS011;55581;46.718;7.690;2022-07-17T14:31:46;4.95;;;3.30;;
68608;SDS011;55581;46.718;7.690;2022-07-17T14:34:12;4.27;;;3.40;;
68608;SDS011;55581;46.718;7.690;2022-07-17T14:36:38;5.40;;;3.55;;
68608;SDS011;55581;46.718;7.690;2022-07-17T14:39:06;7.28;;;3.50;;
68608;SDS011;55581;46.718;7.690;2022-07-17T14:41:31;7.77;;;3.67;;
68608;SDS011;55581;46.718;7.690;2022-07-17T14:43:57;7.65;;;3.50;;
68608;SDS011;55581;46.718;7.690;2022-07-17T14:46:23;5.50;;;3.63;;
68608;SDS011;55581;46.718;7.690;2022-07-17T14:48:49;5.63;;;4.07;;
68608;SDS011;55581;46.718;7.690;2022-07-17T14:51:15;6.20;;;3.60;;
68608;SDS011;55581;46.718;7.690;2022-07-17T14:53:41;7.57;;;4.03;;
68608;SDS011;55581;46.718;7.690;2022-07-17T14:56:06;5.28;;;4.03;;
68608;SDS011;55581;46.718;7.690;2022-07-17T14:58:32;6.37;;;4.10;;
68608;SDS011;55581;46.718;7.690;2022-07-17T15:00:57;4.68;;;3.70;;
68608;SDS011;55581;46.718;7.690;2022-07-17T15:03:23;5.40;;;3.67;;
68608;SDS011;55581;46.718;7.690;2022-07-17T15:05:48;6.23;;;3.53;;
68608;SDS011;55581;46.718;7.690;2022-07-17T15:08:14;4.83;;;3.70;;
68608;SDS011;55581;46.718;7.690;2022-07-17T15:10:41;5.45;;;4.25;;